sensor_id;sensor_type;location;lat;lon;timestamp;temperature;humidity
26745;DHT22;14342;50.960;13.880;2023-11-19T00:00:28;5.00;99.90
26745;DHT22;14342;50.960;13.880;2023-11-19T00:01:30;5.00;99.90
26745;DHT22;14342;50.960;13.880;2023-11-19T00:02:31;5.00;99.90
26745;DHT22;14342;50.960;13.880;2023-11-19T00:03:32;5.00;99.90
26745;DHT22;14342;50.960;13.880;2023-11-19T00:04:36;5.10;99.90
26745;DHT22;14342;50.960;13.880;2023-11-19T00:05:37;5.10;99.90
26745;DHT22;14342;50.960;13.880;2023-11-19T00:06:38;5.10;99.90
26745;DHT22;14342;50.960;13.880;2023-11-19T00:07:40;5.20;99.90
26745;DHT22;14342;50.960;13.880;2023-11-19T00:08:41;5.20;99.90
26745;DHT22;14342;50.960;13.880;2023-11-19T00:09:45;5.10;99.90
26745;DHT22;14342;50.960;13.880;2023-11-19T00:10:45;5.10;99.90
26745;DHT22;14342;50.960;13.880;2023-11-19T00:11:47;5.10;99.90
26745;DHT22;14342;50.960;13.880;2023-11-19T00:12:48;5.10;99.90
26745;DHT22;14342;50.960;13.880;2023-11-19T00:13:49;5.00;99.90
26745;DHT22;14342;50.960;13.880;2023-11-19T00:14:50;5.10;99.90
26745;DHT22;14342;50.960;13.880;2023-11-19T00:15:51;5.10;99.90
26745;DHT22;14342;50.960;13.880;2023-11-19T00:16:53;5.10;99.90
26745;DHT22;14342;50.960;13.880;2023-11-19T00:17:54;5.10;99.90
26745;DHT22;14342;50.960;13.880;2023-11-19T00:18:55;5.00;99.90
26745;DHT22;14342;50.960;13.880;2023-11-19T00:19:56;5.20;99.90
26745;DHT22;14342;50.960;13.880;2023-11-19T00:20:57;4.90;99.90
26745;DHT22;14342;50.960;13.880;2023-11-19T00:21:58;4.90;99.90
26745;DHT22;14342;50.960;13.880;2023-11-19T00:23:03;4.90;99.90
26745;DHT22;14342;50.960;13.880;2023-11-19T00:24:03;4.80;99.90
26745;DHT22;14342;50.960;13.880;2023-11-19T00:25:07;4.80;99.90
26745;DHT22;14342;50.960;13.880;2023-11-19T00:26:08;4.80;99.90
26745;DHT22;14342;50.960;13.880;2023-11-19T00:27:10;4.80;99.90
26745;DHT22;14342;50.960;13.880;2023-11-19T00:28:11;4.90;99.90
26745;DHT22;14342;50.960;13.880;2023-11-19T00:29:13;4.80;99.90
26745;DHT22;14342;50.960;13.880;2023-11-19T00:30:14;4.80;99.90
26745;DHT22;14342;50.960;13.880;2023-11-19T00:31:16;4.80;99.90
26745;DHT22;14342;50.960;13.880;2023-11-19T00:32:17;4.80;99.90
26745;DHT22;14342;50.960;13.880;2023-11-19T00:33:18;4.90;99.90
26745;DHT22;14342;50.960;13.880;2023-11-19T00:34:19;4.90;99.90
26745;DHT22;14342;50.960;13.880;2023-11-19T00:35:22;5.00;99.90
26745;DHT22;14342;50.960;13.880;2023-11-19T00:36:23;5.30;99.90
26745;DHT22;14342;50.960;13.880;2023-11-19T00:37:25;5.00;99.90
26745;DHT22;14342;50.960;13.880;2023-11-19T00:38:26;5.00;99.90
26745;DHT22;14342;50.960;13.880;2023-11-19T00:39:28;5.00;99.90
26745;DHT22;14342;50.960;13.880;2023-11-19T00:40:30;5.00;99.90
26745;DHT22;14342;50.960;13.880;2023-11-19T00:41:31;5.10;99.90
26745;DHT22;14342;50.960;13.880;2023-11-19T00:42:32;5.20;99.90
26745;DHT22;14342;50.960;13.880;2023-11-19T00:43:34;5.30;99.90
26745;DHT22;14342;50.960;13.880;2023-11-19T00:44:35;5.30;99.90
26745;DHT22;14342;50.960;13.880;2023-11-19T00:45:36;5.30;99.90
26745;DHT22;14342;50.960;13.880;2023-11-19T00:46:37;5.30;99.90
26745;DHT22;14342;50.960;13.880;2023-11-19T00:47:38;5.40;99.90
26745;DHT22;14342;50.960;13.880;2023-11-19T00:48:39;5.40;99.90
26745;DHT22;14342;50.960;13.880;2023-11-19T00:49:41;5.40;99.90
26745;DHT22;14342;50.960;13.880;2023-11-19T00:50:43;5.40;99.90
26745;DHT22;14342;50.960;13.880;2023-11-19T00:51:45;5.40;99.90
26745;DHT22;14342;50.960;13.880;2023-11-19T00:52:46;5.40;99.90
26745;DHT22;14342;50.960;13.880;2023-11-19T00:53:48;5.30;99.90
26745;DHT22;14342;50.960;13.880;2023-11-19T00:54:48;5.30;99.90
26745;DHT22;14342;50.960;13.880;2023-11-19T00:55:52;5.30;99.90
26745;DHT22;14342;50.960;13.880;2023-11-19T00:56:53;5.30;99.90
26745;DHT22;14342;50.960;13.880;2023-11-19T00:57:55;5.30;99.90
26745;DHT22;14342;50.960;13.880;2023-11-19T00:58:56;5.30;99.90
26745;DHT22;14342;50.960;13.880;2023-11-19T01:00:00;5.30;99.90
26745;DHT22;14342;50.960;13.880;2023-11-19T01:01:00;5.30;99.90
26745;DHT22;14342;50.960;13.880;2023-11-19T01:02:02;5.10;99.90
26745;DHT22;14342;50.960;13.880;2023-11-19T01:03:05;5.30;99.90
26745;DHT22;14342;50.960;13.880;2023-11-19T01:04:07;5.40;99.90
26745;DHT22;14342;50.960;13.880;2023-11-19T01:05:09;5.30;99.90
26745;DHT22;14342;50.960;13.880;2023-11-19T01:06:10;5.40;99.90
26745;DHT22;14342;50.960;13.880;2023-11-19T01:07:11;5.40;99.90
26745;DHT22;14342;50.960;13.880;2023-11-19T01:08:13;5.40;99.90
26745;DHT22;14342;50.960;13.880;2023-11-19T01:09:13;5.40;99.90
26745;DHT22;14342;50.960;13.880;2023-11-19T01:10:16;5.40;99.90
26745;DHT22;14342;50.960;13.880;2023-11-19T01:11:20;5.40;99.90
26745;DHT22;14342;50.960;13.880;2023-11-19T01:12:22;5.40;99.90
26745;DHT22;14342;50.960;13.880;2023-11-19T01:13:23;5.40;99.90
26745;DHT22;14342;50.960;13.880;2023-11-19T01:14:24;5.40;99.90
26745;DHT22;14342;50.960;13.880;2023-11-19T01:15:25;5.30;99.90
26745;DHT22;14342;50.960;13.880;2023-11-19T01:16:27;5.30;99.90
26745;DHT22;14342;50.960;13.880;2023-11-19T01:17:27;5.30;99.90
26745;DHT22;14342;50.960;13.880;2023-11-19T01:18:31;5.30;99.90
26745;DHT22;14342;50.960;13.880;2023-11-19T01:19:32;5.30;99.90
26745;DHT22;14342;50.960;13.880;2023-11-19T01:20:34;5.30;99.90
26745;DHT22;14342;50.960;13.880;2023-11-19T01:21:35;5.20;99.90
26745;DHT22;14342;50.960;13.880;2023-11-19T01:22:36;5.10;99.90
26745;DHT22;14342;50.960;13.880;2023-11-19T01:23:37;5.10;99.90
26745;DHT22;14342;50.960;13.880;2023-11-19T01:24:39;5.00;99.90
26745;DHT22;14342;50.960;13.880;2023-11-19T01:25:40;4.90;99.90
26745;DHT22;14342;50.960;13.880;2023-11-19T01:26:42;4.90;99.90
26745;DHT22;14342;50.960;13.880;2023-11-19T01:27:45;4.90;99.90
26745;DHT22;14342;50.960;13.880;2023-11-19T01:28:46;4.90;99.90
26745;DHT22;14342;50.960;13.880;2023-11-19T01:29:48;4.90;99.90
26745;DHT22;14342;50.960;13.880;2023-11-19T01:30:50;4.90;99.90
26745;DHT22;14342;50.960;13.880;2023-11-19T01:31:51;4.90;99.90
26745;DHT22;14342;50.960;13.880;2023-11-19T01:32:53;4.90;99.90
26745;DHT22;14342;50.960;13.880;2023-11-19T01:33:54;5.00;99.90
26745;DHT22;14342;50.960;13.880;2023-11-19T01:34:55;5.10;99.90
26745;DHT22;14342;50.960;13.880;2023-11-19T01:35:57;5.20;99.90
26745;DHT22;14342;50.960;13.880;2023-11-19T01:36:59;5.10;99.90
26745;DHT22;14342;50.960;13.880;2023-11-19T01:38:00;5.10;99.90
26745;DHT22;14342;50.960;13.880;2023-11-19T01:39:01;5.00;99.90
26745;DHT22;14342;50.960;13.880;2023-11-19T01:40:04;5.10;99.90
26745;DHT22;14342;50.960;13.880;2023-11-19T01:41:06;5.10;99.90
26745;DHT22;14342;50.960;13.880;2023-11-19T01:42:09;5.10;99.90
26745;DHT22;14342;50.960;13.880;2023-11-19T01:43:09;5.20;99.90
26745;DHT22;14342;50.960;13.880;2023-11-19T01:44:11;5.20;99.90
26745;DHT22;14342;50.960;13.880;2023-11-19T01:45:17;5.30;99.90
26745;DHT22;14342;50.960;13.880;2023-11-19T01:46:22;5.40;99.90
26745;DHT22;14342;50.960;13.880;2023-11-19T01:47:23;5.40;99.90
26745;DHT22;14342;50.960;13.880;2023-11-19T01:48:25;5.40;99.90
26745;DHT22;14342;50.960;13.880;2023-11-19T01:49:26;5.30;99.90
26745;DHT22;14342;50.960;13.880;2023-11-19T01:50:29;5.40;99.90
26745;DHT22;14342;50.960;13.880;2023-11-19T01:51:30;5.40;99.90
26745;DHT22;14342;50.960;13.880;2023-11-19T01:52:32;5.50;99.90
26745;DHT22;14342;50.960;13.880;2023-11-19T01:53:34;5.50;99.90
26745;DHT22;14342;50.960;13.880;2023-11-19T01:54:36;5.60;99.90
26745;DHT22;14342;50.960;13.880;2023-11-19T01:55:37;5.70;99.90
26745;DHT22;14342;50.960;13.880;2023-11-19T01:56:38;5.70;99.90
26745;DHT22;14342;50.960;13.880;2023-11-19T01:57:42;5.70;99.90
26745;DHT22;14342;50.960;13.880;2023-11-19T01:58:43;5.70;99.90
26745;DHT22;14342;50.960;13.880;2023-11-19T01:59:44;5.80;99.90
26745;DHT22;14342;50.960;13.880;2023-11-19T02:00:45;5.80;99.90
26745;DHT22;14342;50.960;13.880;2023-11-19T02:01:47;5.90;99.90
26745;DHT22;14342;50.960;13.880;2023-11-19T02:02:47;5.80;99.90
26745;DHT22;14342;50.960;13.880;2023-11-19T02:03:49;5.70;99.90
26745;DHT22;14342;50.960;13.880;2023-11-19T02:04:50;5.60;99.90
26745;DHT22;14342;50.960;13.880;2023-11-19T02:05:52;5.50;99.90
26745;DHT22;14342;50.960;13.880;2023-11-19T02:06:53;5.50;99.90
26745;DHT22;14342;50.960;13.880;2023-11-19T02:07:55;5.60;99.90
26745;DHT22;14342;50.960;13.880;2023-11-19T02:08:56;5.60;99.90
26745;DHT22;14342;50.960;13.880;2023-11-19T02:09:57;5.50;99.90
26745;DHT22;14342;50.960;13.880;2023-11-19T02:11:00;5.40;99.90
26745;DHT22;14342;50.960;13.880;2023-11-19T02:12:02;5.30;99.90
26745;DHT22;14342;50.960;13.880;2023-11-19T02:13:04;5.30;99.90
26745;DHT22;14342;50.960;13.880;2023-11-19T02:14:07;5.40;99.90
26745;DHT22;14342;50.960;13.880;2023-11-19T02:15:08;5.50;99.90
26745;DHT22;14342;50.960;13.880;2023-11-19T02:16:10;5.40;99.90
26745;DHT22;14342;50.960;13.880;2023-11-19T02:17:24;5.40;99.90
26745;DHT22;14342;50.960;13.880;2023-11-19T02:18:26;5.40;99.90
26745;DHT22;14342;50.960;13.880;2023-11-19T02:19:28;5.30;99.90
26745;DHT22;14342;50.960;13.880;2023-11-19T02:20:30;5.30;99.90
26745;DHT22;14342;50.960;13.880;2023-11-19T02:21:30;5.30;99.90
26745;DHT22;14342;50.960;13.880;2023-11-19T02:22:31;5.30;99.90
26745;DHT22;14342;50.960;13.880;2023-11-19T02:23:33;5.20;99.90
26745;DHT22;14342;50.960;13.880;2023-11-19T02:24:33;5.30;99.90
26745;DHT22;14342;50.960;13.880;2023-11-19T02:25:35;5.30;99.90
26745;DHT22;14342;50.960;13.880;2023-11-19T02:26:38;5.30;99.90
26745;DHT22;14342;50.960;13.880;2023-11-19T02:27:45;5.30;99.90
26745;DHT22;14342;50.960;13.880;2023-11-19T02:28:46;5.40;99.90
26745;DHT22;14342;50.960;13.880;2023-11-19T02:29:48;5.30;99.90
26745;DHT22;14342;50.960;13.880;2023-11-19T02:30:50;5.30;99.90
26745;DHT22;14342;50.960;13.880;2023-11-19T02:31:53;5.30;99.90
26745;DHT22;14342;50.960;13.880;2023-11-19T02:32:55;5.40;99.90
26745;DHT22;14342;50.960;13.880;2023-11-19T02:33:59;5.40;99.90
26745;DHT22;14342;50.960;13.880;2023-11-19T02:35:01;5.20;99.90
26745;DHT22;14342;50.960;13.880;2023-11-19T02:36:02;5.20;99.90
26745;DHT22;14342;50.960;13.880;2023-11-19T02:37:04;5.10;99.90
26745;DHT22;14342;50.960;13.880;2023-11-19T02:38:06;5.10;99.90
26745;DHT22;14342;50.960;13.880;2023-11-19T02:39:07;5.10;99.90
26745;DHT22;14342;50.960;13.880;2023-11-19T02:40:12;5.10;99.90
26745;DHT22;14342;50.960;13.880;2023-11-19T02:41:14;5.00;99.90
26745;DHT22;14342;50.960;13.880;2023-11-19T02:42:14;5.10;99.90
26745;DHT22;14342;50.960;13.880;2023-11-19T02:43:17;5.20;99.90
26745;DHT22;14342;50.960;13.880;2023-11-19T02:44:18;5.10;99.90
26745;DHT22;14342;50.960;13.880;2023-11-19T02:45:20;5.20;99.90
26745;DHT22;14342;50.960;13.880;2023-11-19T02:46:22;5.20;99.90
26745;DHT22;14342;50.960;13.880;2023-11-19T02:47:24;5.20;99.90
26745;DHT22;14342;50.960;13.880;2023-11-19T02:48:25;5.20;99.90
26745;DHT22;14342;50.960;13.880;2023-11-19T02:49:29;5.30;99.90
26745;DHT22;14342;50.960;13.880;2023-11-19T02:50:29;5.20;99.90
26745;DHT22;14342;50.960;13.880;2023-11-19T02:51:31;5.30;99.90
26745;DHT22;14342;50.960;13.880;2023-11-19T02:52:33;5.20;99.90
26745;DHT22;14342;50.960;13.880;2023-11-19T02:53:37;5.20;99.90
26745;DHT22;14342;50.960;13.880;2023-11-19T02:54:40;5.20;99.90
26745;DHT22;14342;50.960;13.880;2023-11-19T02:55:41;5.30;99.90
26745;DHT22;14342;50.960;13.880;2023-11-19T02:56:48;5.30;99.90
26745;DHT22;14342;50.960;13.880;2023-11-19T02:57:55;5.30;99.90
26745;DHT22;14342;50.960;13.880;2023-11-19T02:59:00;5.40;99.90
26745;DHT22;14342;50.960;13.880;2023-11-19T03:00:08;5.30;99.90
26745;DHT22;14342;50.960;13.880;2023-11-19T03:01:12;5.40;99.90
26745;DHT22;14342;50.960;13.880;2023-11-19T03:02:23;5.40;99.90
26745;DHT22;14342;50.960;13.880;2023-11-19T03:03:26;5.50;99.90
26745;DHT22;14342;50.960;13.880;2023-11-19T03:04:31;5.40;99.90
26745;DHT22;14342;50.960;13.880;2023-11-19T03:05:32;5.30;99.90
26745;DHT22;14342;50.960;13.880;2023-11-19T03:06:33;5.30;99.90
26745;DHT22;14342;50.960;13.880;2023-11-19T03:07:34;5.40;99.90
26745;DHT22;14342;50.960;13.880;2023-11-19T03:08:35;5.30;99.90
26745;DHT22;14342;50.960;13.880;2023-11-19T03:09:37;5.40;99.90
26745;DHT22;14342;50.960;13.880;2023-11-19T03:10:40;5.40;99.90
26745;DHT22;14342;50.960;13.880;2023-11-19T03:11:41;5.30;99.90
26745;DHT22;14342;50.960;13.880;2023-11-19T03:12:43;5.20;99.90
26745;DHT22;14342;50.960;13.880;2023-11-19T03:13:44;5.30;99.90
26745;DHT22;14342;50.960;13.880;2023-11-19T03:14:49;5.30;99.90
26745;DHT22;14342;50.960;13.880;2023-11-19T03:15:52;5.40;99.90
26745;DHT22;14342;50.960;13.880;2023-11-19T03:16:54;5.40;99.90
26745;DHT22;14342;50.960;13.880;2023-11-19T03:17:55;5.60;99.90
26745;DHT22;14342;50.960;13.880;2023-11-19T03:18:55;5.60;99.90
26745;DHT22;14342;50.960;13.880;2023-11-19T03:19:57;5.70;99.90
26745;DHT22;14342;50.960;13.880;2023-11-19T03:20:58;5.60;99.90
26745;DHT22;14342;50.960;13.880;2023-11-19T03:22:01;5.70;99.90
26745;DHT22;14342;50.960;13.880;2023-11-19T03:23:01;5.60;99.90
26745;DHT22;14342;50.960;13.880;2023-11-19T03:24:03;6.00;99.90
26745;DHT22;14342;50.960;13.880;2023-11-19T03:25:04;5.70;99.90
26745;DHT22;14342;50.960;13.880;2023-11-19T03:26:05;5.80;99.90
26745;DHT22;14342;50.960;13.880;2023-11-19T03:27:07;5.80;99.90
26745;DHT22;14342;50.960;13.880;2023-11-19T03:28:07;5.90;99.90
26745;DHT22;14342;50.960;13.880;2023-11-19T03:29:09;5.90;99.90
26745;DHT22;14342;50.960;13.880;2023-11-19T03:30:11;5.90;99.90
26745;DHT22;14342;50.960;13.880;2023-11-19T03:31:12;5.80;99.90
26745;DHT22;14342;50.960;13.880;2023-11-19T03:32:14;5.70;99.90
26745;DHT22;14342;50.960;13.880;2023-11-19T03:33:15;5.60;99.90
26745;DHT22;14342;50.960;13.880;2023-11-19T03:34:17;5.60;99.90
26745;DHT22;14342;50.960;13.880;2023-11-19T03:35:17;5.60;99.90
26745;DHT22;14342;50.960;13.880;2023-11-19T03:36:18;5.60;99.90
26745;DHT22;14342;50.960;13.880;2023-11-19T03:37:20;5.50;99.90
26745;DHT22;14342;50.960;13.880;2023-11-19T03:38:20;5.60;99.90
26745;DHT22;14342;50.960;13.880;2023-11-19T03:39:22;5.60;99.90
26745;DHT22;14342;50.960;13.880;2023-11-19T03:40:25;5.50;99.90
26745;DHT22;14342;50.960;13.880;2023-11-19T03:41:28;5.50;99.90
26745;DHT22;14342;50.960;13.880;2023-11-19T03:42:28;5.50;99.90
26745;DHT22;14342;50.960;13.880;2023-11-19T03:43:31;5.50;99.90
26745;DHT22;14342;50.960;13.880;2023-11-19T03:44:33;5.70;99.90
26745;DHT22;14342;50.960;13.880;2023-11-19T03:45:36;5.60;99.90
26745;DHT22;14342;50.960;13.880;2023-11-19T03:46:37;5.60;99.90
26745;DHT22;14342;50.960;13.880;2023-11-19T03:47:38;5.60;99.90
26745;DHT22;14342;50.960;13.880;2023-11-19T03:48:40;5.50;99.90
26745;DHT22;14342;50.960;13.880;2023-11-19T03:49:41;5.50;99.90
26745;DHT22;14342;50.960;13.880;2023-11-19T03:50:42;5.50;99.90
26745;DHT22;14342;50.960;13.880;2023-11-19T03:51:44;5.50;99.90
26745;DHT22;14342;50.960;13.880;2023-11-19T03:52:45;5.50;99.90
26745;DHT22;14342;50.960;13.880;2023-11-19T03:53:46;5.60;99.90
26745;DHT22;14342;50.960;13.880;2023-11-19T03:54:47;5.60;99.90
26745;DHT22;14342;50.960;13.880;2023-11-19T03:55:49;5.60;99.90
26745;DHT22;14342;50.960;13.880;2023-11-19T03:56:50;5.60;99.90
26745;DHT22;14342;50.960;13.880;2023-11-19T03:57:51;5.50;99.90
26745;DHT22;14342;50.960;13.880;2023-11-19T03:58:52;5.60;99.90
26745;DHT22;14342;50.960;13.880;2023-11-19T03:59:54;5.50;99.90
26745;DHT22;14342;50.960;13.880;2023-11-19T04:00:57;5.50;99.90
26745;DHT22;14342;50.960;13.880;2023-11-19T04:01:58;5.50;99.90
26745;DHT22;14342;50.960;13.880;2023-11-19T04:03:00;5.40;99.90
26745;DHT22;14342;50.960;13.880;2023-11-19T04:04:03;5.40;99.90
26745;DHT22;14342;50.960;13.880;2023-11-19T04:05:04;5.40;99.90
26745;DHT22;14342;50.960;13.880;2023-11-19T04:06:07;5.40;99.90
26745;DHT22;14342;50.960;13.880;2023-11-19T04:07:07;5.30;99.90
26745;DHT22;14342;50.960;13.880;2023-11-19T04:08:09;5.40;99.90
26745;DHT22;14342;50.960;13.880;2023-11-19T04:09:10;5.40;99.90
26745;DHT22;14342;50.960;13.880;2023-11-19T04:10:11;5.50;99.90
26745;DHT22;14342;50.960;13.880;2023-11-19T04:11:12;5.50;99.90
26745;DHT22;14342;50.960;13.880;2023-11-19T04:12:12;5.60;99.90
26745;DHT22;14342;50.960;13.880;2023-11-19T04:13:14;5.60;99.90
26745;DHT22;14342;50.960;13.880;2023-11-19T04:14:15;5.10;99.90
26745;DHT22;14342;50.960;13.880;2023-11-19T04:15:18;5.50;99.90
26745;DHT22;14342;50.960;13.880;2023-11-19T04:16:25;5.60;99.90
26745;DHT22;14342;50.960;13.880;2023-11-19T04:17:28;5.60;99.90
26745;DHT22;14342;50.960;13.880;2023-11-19T04:18:28;5.60;99.90
26745;DHT22;14342;50.960;13.880;2023-11-19T04:19:30;5.60;99.90
26745;DHT22;14342;50.960;13.880;2023-11-19T04:20:33;5.50;99.90
26745;DHT22;14342;50.960;13.880;2023-11-19T04:21:34;5.50;99.90
26745;DHT22;14342;50.960;13.880;2023-11-19T04:22:35;5.50;99.90
26745;DHT22;14342;50.960;13.880;2023-11-19T04:23:36;5.50;99.90
26745;DHT22;14342;50.960;13.880;2023-11-19T04:24:37;5.50;99.90
26745;DHT22;14342;50.960;13.880;2023-11-19T04:25:38;5.40;99.90
26745;DHT22;14342;50.960;13.880;2023-11-19T04:26:40;5.40;99.90
26745;DHT22;14342;50.960;13.880;2023-11-19T04:27:42;5.50;99.90
26745;DHT22;14342;50.960;13.880;2023-11-19T04:28:42;5.50;99.90
26745;DHT22;14342;50.960;13.880;2023-11-19T04:29:44;5.50;99.90
26745;DHT22;14342;50.960;13.880;2023-11-19T04:30:46;5.50;99.90
26745;DHT22;14342;50.960;13.880;2023-11-19T04:31:49;5.50;99.90
26745;DHT22;14342;50.960;13.880;2023-11-19T04:32:49;5.40;99.90
26745;DHT22;14342;50.960;13.880;2023-11-19T04:33:51;5.40;99.90
26745;DHT22;14342;50.960;13.880;2023-11-19T04:34:52;5.40;99.90
26745;DHT22;14342;50.960;13.880;2023-11-19T04:35:54;5.30;99.90
26745;DHT22;14342;50.960;13.880;2023-11-19T04:36:55;5.30;99.90
26745;DHT22;14342;50.960;13.880;2023-11-19T04:37:56;5.00;99.90
26745;DHT22;14342;50.960;13.880;2023-11-19T04:38:58;5.30;99.90
26745;DHT22;14342;50.960;13.880;2023-11-19T04:39:59;5.30;99.90
26745;DHT22;14342;50.960;13.880;2023-11-19T04:41:01;5.40;99.90
26745;DHT22;14342;50.960;13.880;2023-11-19T04:42:02;5.40;99.90
26745;DHT22;14342;50.960;13.880;2023-11-19T04:43:04;5.30;99.90
26745;DHT22;14342;50.960;13.880;2023-11-19T04:44:05;5.60;99.90
26745;DHT22;14342;50.960;13.880;2023-11-19T04:45:07;5.40;99.90
26745;DHT22;14342;50.960;13.880;2023-11-19T04:46:09;5.40;99.90
26745;DHT22;14342;50.960;13.880;2023-11-19T04:47:12;5.30;99.90
26745;DHT22;14342;50.960;13.880;2023-11-19T04:48:12;5.30;99.90
26745;DHT22;14342;50.960;13.880;2023-11-19T04:49:13;5.20;99.90
26745;DHT22;14342;50.960;13.880;2023-11-19T04:50:15;5.20;99.90
26745;DHT22;14342;50.960;13.880;2023-11-19T04:51:16;5.20;99.90
26745;DHT22;14342;50.960;13.880;2023-11-19T04:52:17;5.20;99.90
26745;DHT22;14342;50.960;13.880;2023-11-19T04:53:18;5.20;99.90
26745;DHT22;14342;50.960;13.880;2023-11-19T04:54:19;5.10;99.90
26745;DHT22;14342;50.960;13.880;2023-11-19T04:55:20;5.00;99.90
26745;DHT22;14342;50.960;13.880;2023-11-19T04:56:21;5.00;99.90
26745;DHT22;14342;50.960;13.880;2023-11-19T04:57:23;5.00;99.90
26745;DHT22;14342;50.960;13.880;2023-11-19T04:58:24;5.00;99.90
26745;DHT22;14342;50.960;13.880;2023-11-19T04:59:25;5.00;99.90
26745;DHT22;14342;50.960;13.880;2023-11-19T05:00:27;5.10;99.90
26745;DHT22;14342;50.960;13.880;2023-11-19T05:01:30;5.10;99.90
26745;DHT22;14342;50.960;13.880;2023-11-19T05:02:32;5.20;99.90
26745;DHT22;14342;50.960;13.880;2023-11-19T05:03:33;5.60;99.90
26745;DHT22;14342;50.960;13.880;2023-11-19T05:04:34;5.40;99.90
26745;DHT22;14342;50.960;13.880;2023-11-19T05:05:35;5.40;99.90
26745;DHT22;14342;50.960;13.880;2023-11-19T05:06:36;5.40;99.90
26745;DHT22;14342;50.960;13.880;2023-11-19T05:07:38;5.30;99.90
26745;DHT22;14342;50.960;13.880;2023-11-19T05:08:39;5.20;99.90
26745;DHT22;14342;50.960;13.880;2023-11-19T05:09:39;5.10;99.90
26745;DHT22;14342;50.960;13.880;2023-11-19T05:10:43;5.00;99.90
26745;DHT22;14342;50.960;13.880;2023-11-19T05:11:43;5.10;99.90
26745;DHT22;14342;50.960;13.880;2023-11-19T05:12:45;5.10;99.90
26745;DHT22;14342;50.960;13.880;2023-11-19T05:13:45;5.10;99.90
26745;DHT22;14342;50.960;13.880;2023-11-19T05:14:47;5.00;99.90
26745;DHT22;14342;50.960;13.880;2023-11-19T05:15:50;5.10;99.90
26745;DHT22;14342;50.960;13.880;2023-11-19T05:16:52;5.10;99.90
26745;DHT22;14342;50.960;13.880;2023-11-19T05:17:54;5.10;99.90
26745;DHT22;14342;50.960;13.880;2023-11-19T05:18:55;5.10;99.90
26745;DHT22;14342;50.960;13.880;2023-11-19T05:19:56;5.20;99.90
26745;DHT22;14342;50.960;13.880;2023-11-19T05:20:58;5.30;99.90
26745;DHT22;14342;50.960;13.880;2023-11-19T05:21:58;5.30;99.90
26745;DHT22;14342;50.960;13.880;2023-11-19T05:23:00;5.30;99.90
26745;DHT22;14342;50.960;13.880;2023-11-19T05:24:01;5.30;99.90
26745;DHT22;14342;50.960;13.880;2023-11-19T05:25:05;5.30;99.90
26745;DHT22;14342;50.960;13.880;2023-11-19T05:26:06;5.30;99.90
26745;DHT22;14342;50.960;13.880;2023-11-19T05:27:08;5.30;99.90
26745;DHT22;14342;50.960;13.880;2023-11-19T05:28:11;5.30;99.90
26745;DHT22;14342;50.960;13.880;2023-11-19T05:29:15;5.20;99.90
26745;DHT22;14342;50.960;13.880;2023-11-19T05:30:16;5.20;99.90
26745;DHT22;14342;50.960;13.880;2023-11-19T05:31:17;5.20;99.90
26745;DHT22;14342;50.960;13.880;2023-11-19T05:32:18;5.20;99.90
26745;DHT22;14342;50.960;13.880;2023-11-19T05:33:21;5.20;99.90
26745;DHT22;14342;50.960;13.880;2023-11-19T05:34:22;5.30;99.90
26745;DHT22;14342;50.960;13.880;2023-11-19T05:35:23;5.40;99.90
26745;DHT22;14342;50.960;13.880;2023-11-19T05:36:24;5.40;99.90
26745;DHT22;14342;50.960;13.880;2023-11-19T05:37:26;5.50;99.90
26745;DHT22;14342;50.960;13.880;2023-11-19T05:38:26;5.50;99.90
26745;DHT22;14342;50.960;13.880;2023-11-19T05:39:29;5.60;99.90
26745;DHT22;14342;50.960;13.880;2023-11-19T05:40:29;5.60;99.90
26745;DHT22;14342;50.960;13.880;2023-11-19T05:41:31;5.60;99.90
26745;DHT22;14342;50.960;13.880;2023-11-19T05:42:32;5.60;99.90
26745;DHT22;14342;50.960;13.880;2023-11-19T05:43:32;5.60;99.90
26745;DHT22;14342;50.960;13.880;2023-11-19T05:44:34;5.60;99.90
26745;DHT22;14342;50.960;13.880;2023-11-19T05:45:35;5.60;99.90
26745;DHT22;14342;50.960;13.880;2023-11-19T05:46:36;5.50;99.90
26745;DHT22;14342;50.960;13.880;2023-11-19T05:47:40;5.50;99.90
26745;DHT22;14342;50.960;13.880;2023-11-19T05:48:43;5.40;99.90
26745;DHT22;14342;50.960;13.880;2023-11-19T05:49:46;5.50;99.90
26745;DHT22;14342;50.960;13.880;2023-11-19T05:50:47;5.60;99.90
26745;DHT22;14342;50.960;13.880;2023-11-19T05:51:50;5.60;99.90
26745;DHT22;14342;50.960;13.880;2023-11-19T05:52:51;5.60;99.90
26745;DHT22;14342;50.960;13.880;2023-11-19T05:53:54;5.70;99.90
26745;DHT22;14342;50.960;13.880;2023-11-19T05:54:56;5.70;99.90
26745;DHT22;14342;50.960;13.880;2023-11-19T05:55:57;5.70;99.90
26745;DHT22;14342;50.960;13.880;2023-11-19T05:56:58;5.70;99.90
26745;DHT22;14342;50.960;13.880;2023-11-19T05:57:59;5.60;99.90
26745;DHT22;14342;50.960;13.880;2023-11-19T05:59:01;5.60;99.90
26745;DHT22;14342;50.960;13.880;2023-11-19T06:00:04;5.60;99.90
26745;DHT22;14342;50.960;13.880;2023-11-19T06:01:08;5.70;99.90
26745;DHT22;14342;50.960;13.880;2023-11-19T06:02:09;5.70;99.90
26745;DHT22;14342;50.960;13.880;2023-11-19T06:03:10;5.60;99.90
26745;DHT22;14342;50.960;13.880;2023-11-19T06:04:12;5.60;99.90
26745;DHT22;14342;50.960;13.880;2023-11-19T06:05:14;5.60;99.90
26745;DHT22;14342;50.960;13.880;2023-11-19T06:06:15;5.60;99.90
26745;DHT22;14342;50.960;13.880;2023-11-19T06:07:16;5.60;99.90
26745;DHT22;14342;50.960;13.880;2023-11-19T06:08:17;5.60;99.90
26745;DHT22;14342;50.960;13.880;2023-11-19T06:09:21;5.40;99.90
26745;DHT22;14342;50.960;13.880;2023-11-19T06:10:23;5.60;99.90
26745;DHT22;14342;50.960;13.880;2023-11-19T06:11:29;5.60;99.90
26745;DHT22;14342;50.960;13.880;2023-11-19T06:12:30;5.70;99.90
26745;DHT22;14342;50.960;13.880;2023-11-19T06:13:32;5.70;99.90
26745;DHT22;14342;50.960;13.880;2023-11-19T06:14:34;5.70;99.90
26745;DHT22;14342;50.960;13.880;2023-11-19T06:15:34;5.80;99.90
26745;DHT22;14342;50.960;13.880;2023-11-19T06:16:35;5.80;99.90
26745;DHT22;14342;50.960;13.880;2023-11-19T06:17:39;5.90;99.90
26745;DHT22;14342;50.960;13.880;2023-11-19T06:18:40;5.90;99.90
26745;DHT22;14342;50.960;13.880;2023-11-19T06:19:45;5.90;99.90
26745;DHT22;14342;50.960;13.880;2023-11-19T06:20:46;5.90;99.90
26745;DHT22;14342;50.960;13.880;2023-11-19T06:21:48;5.90;99.90
26745;DHT22;14342;50.960;13.880;2023-11-19T06:22:48;5.90;99.90
26745;DHT22;14342;50.960;13.880;2023-11-19T06:23:50;5.90;99.90
26745;DHT22;14342;50.960;13.880;2023-11-19T06:24:52;6.00;99.90
26745;DHT22;14342;50.960;13.880;2023-11-19T06:25:54;6.00;99.90
26745;DHT22;14342;50.960;13.880;2023-11-19T06:26:55;5.90;99.90
26745;DHT22;14342;50.960;13.880;2023-11-19T06:27:56;5.90;99.90
26745;DHT22;14342;50.960;13.880;2023-11-19T06:28:57;5.90;99.90
26745;DHT22;14342;50.960;13.880;2023-11-19T06:29:59;6.00;99.90